createdAt,value
2022-12-27T00:00:27.132Z,10.30
2022-12-27T00:02:56.122Z,10.30
2022-12-27T00:05:24.994Z,10.20
2022-12-27T00:07:56.546Z,10.30
2022-12-27T00:10:25.670Z,10.30
2022-12-27T00:12:54.645Z,10.20
2022-12-27T00:15:23.542Z,10.20
2022-12-27T00:17:52.363Z,10.10
2022-12-27T00:20:21.210Z,10.20
2022-12-27T00:22:50.122Z,10.20
2022-12-27T00:25:20.492Z,10.20
2022-12-27T00:27:49.355Z,10.20
2022-12-27T00:30:18.218Z,10.20
2022-12-27T00:32:47.071Z,10.10
2022-12-27T00:35:15.830Z,10.10
2022-12-27T00:37:44.641Z,10.00
2022-12-27T00:40:14.510Z,10.00
2022-12-27T00:42:44.842Z,10.00
2022-12-27T00:45:13.886Z,10.00
2022-12-27T00:47:42.805Z,10.00
2022-12-27T00:50:11.916Z,9.90
2022-12-27T00:52:40.696Z,9.90
2022-12-27T00:55:11.700Z,9.90
2022-12-27T00:57:40.505Z,9.90
2022-12-27T01:00:12.760Z,9.80
2022-12-27T01:02:41.807Z,9.80
2022-12-27T01:05:11.521Z,9.80
2022-12-27T01:07:40.930Z,9.90
2022-12-27T01:10:10.698Z,9.90
2022-12-27T01:12:39.679Z,9.90
2022-12-27T01:15:11.730Z,10.00
2022-12-27T01:17:40.542Z,10.10
2022-12-27T01:20:10.690Z,10.20
2022-12-27T01:22:39.683Z,10.30
2022-12-27T01:25:09.799Z,10.30
2022-12-27T01:27:38.896Z,10.40
2022-12-27T01:30:11.350Z,10.50
2022-12-27T01:32:40.457Z,10.60
2022-12-27T01:35:10.640Z,10.60
2022-12-27T01:37:39.417Z,10.60
2022-12-27T01:40:10.311Z,10.60
2022-12-27T01:42:53.342Z,10.60
2022-12-27T01:45:25.540Z,10.70
2022-12-27T01:48:05.364Z,10.70
2022-12-27T01:50:39.555Z,10.70
2022-12-27T01:53:15.136Z,10.70
2022-12-27T01:55:49.359Z,10.70
2022-12-27T01:58:32.356Z,10.80
2022-12-27T02:01:03.636Z,10.80
2022-12-27T02:03:38.696Z,10.80
2022-12-27T02:06:11.371Z,10.80
2022-12-27T02:08:50.053Z,10.90
2022-12-27T02:11:43.427Z,10.90
2022-12-27T02:14:13.861Z,10.90
2022-12-27T02:16:44.206Z,10.80
2022-12-27T02:19:27.118Z,10.80
2022-12-27T02:22:30.194Z,10.80
2022-12-27T02:25:18.900Z,10.70
2022-12-27T02:28:08.639Z,10.70
2022-12-27T02:30:39.627Z,10.70
2022-12-27T02:33:15.959Z,10.70
2022-12-27T02:35:55.289Z,10.60
2022-12-27T02:38:28.805Z,10.60
2022-12-27T02:41:34.670Z,10.60
2022-12-27T02:44:20.997Z,10.50
2022-12-27T02:47:10.757Z,10.60
2022-12-27T02:50:00.114Z,10.50
2022-12-27T02:53:05.523Z,10.50
2022-12-27T02:56:14.384Z,10.50
2022-12-27T02:59:01.312Z,10.50
2022-12-27T03:02:03.004Z,10.50
2022-12-27T03:05:11.063Z,10.50
2022-12-27T03:07:50.349Z,10.40
2022-12-27T03:10:52.505Z,10.40
2022-12-27T03:13:50.755Z,10.30
2022-12-27T03:16:26.994Z,10.30
2022-12-27T03:19:10.237Z,10.30
2022-12-27T03:22:03.704Z,10.30
2022-12-27T03:24:56.771Z,10.20
2022-12-27T03:27:33.234Z,10.20
2022-12-27T03:30:24.191Z,10.10
2022-12-27T03:33:16.801Z,10.10
2022-12-27T03:36:07.649Z,10.10
2022-12-27T03:38:47.188Z,10.10
2022-12-27T03:41:40.111Z,10.10
2022-12-27T03:44:24.448Z,10.00
2022-12-27T03:46:57.571Z,10.00
2022-12-27T03:49:35.913Z,10.00
2022-12-27T03:52:12.442Z,9.90
2022-12-27T03:54:46.316Z,9.90
2022-12-27T03:57:19.369Z,9.80
2022-12-27T03:59:50.587Z,9.80
2022-12-27T04:02:20.384Z,9.80
2022-12-27T04:04:50.360Z,9.80
2022-12-27T04:07:19.550Z,9.80
2022-12-27T04:10:07.212Z,9.80
2022-12-27T04:12:53.410Z,9.80
2022-12-27T04:15:39.432Z,9.80
2022-12-27T04:18:25.872Z,9.80
2022-12-27T04:21:12.840Z,9.70
2022-12-27T04:23:59.345Z,9.70
2022-12-27T04:26:47.067Z,9.60
2022-12-27T04:29:33.444Z,9.60
2022-12-27T04:32:19.872Z,9.60
2022-12-27T04:34:48.648Z,9.60
2022-12-27T04:37:20.814Z,9.60
2022-12-27T04:40:11.407Z,9.60
2022-12-27T04:42:59.071Z,9.50
2022-12-27T04:45:45.440Z,9.50
2022-12-27T04:48:34.757Z,9.50
2022-12-27T04:51:21.126Z,9.50
2022-12-27T04:54:12.544Z,9.50
2022-12-27T04:56:41.334Z,9.50
2022-12-27T04:59:28.779Z,9.60
2022-12-27T05:02:06.748Z,9.70
2022-12-27T05:04:38.897Z,9.80
2022-12-27T05:07:24.020Z,9.80
2022-12-27T05:10:10.387Z,9.90
2022-12-27T05:12:56.802Z,9.90
2022-12-27T05:15:26.959Z,10.00
2022-12-27T05:17:55.703Z,9.90
2022-12-27T05:20:25.311Z,9.90
2022-12-27T05:23:11.625Z,10.00
2022-12-27T05:25:43.352Z,10.10
2022-12-27T05:28:13.980Z,10.00
2022-12-27T05:30:46.283Z,10.00
2022-12-27T05:33:15.412Z,10.10
2022-12-27T05:35:44.777Z,10.00
2022-12-27T05:38:13.618Z,9.90
2022-12-27T05:40:42.444Z,9.80
2022-12-27T05:43:11.266Z,9.80
2022-12-27T05:45:40.042Z,9.70
2022-12-27T05:48:10.360Z,9.70
2022-12-27T05:50:39.149Z,9.70
2022-12-27T05:53:07.977Z,9.60
2022-12-27T05:55:36.725Z,9.60
2022-12-27T05:58:05.684Z,9.60
2022-12-27T06:00:34.721Z,9.60
2022-12-27T06:03:04.625Z,9.60
2022-12-27T06:05:34.970Z,9.50
2022-12-27T06:08:09.398Z,9.50
2022-12-27T06:10:45.037Z,9.50
2022-12-27T06:13:16.717Z,9.50
2022-12-27T06:15:45.636Z,9.50
2022-12-27T06:18:14.520Z,9.50
2022-12-27T06:20:44.869Z,9.50
2022-12-27T06:23:13.634Z,9.50
2022-12-27T06:25:42.607Z,9.50
2022-12-27T06:28:11.380Z,9.50
2022-12-27T06:30:40.213Z,9.50
2022-12-27T06:33:09.049Z,9.50
2022-12-27T06:35:37.842Z,9.50
2022-12-27T06:38:08.076Z,9.50
2022-12-27T06:40:37.133Z,9.50
2022-12-27T06:43:05.911Z,9.40
2022-12-27T06:45:34.865Z,9.40
2022-12-27T06:48:03.943Z,9.30
2022-12-27T06:50:32.854Z,9.20
2022-12-27T06:53:01.693Z,9.10
2022-12-27T06:55:31.955Z,9.00
2022-12-27T06:58:00.903Z,8.90
2022-12-27T07:00:29.713Z,8.90
2022-12-27T07:02:58.664Z,8.90
2022-12-27T07:05:27.586Z,8.90
2022-12-27T07:07:56.413Z,8.90
2022-12-27T07:10:25.681Z,8.80
2022-12-27T07:12:55.923Z,8.80
2022-12-27T07:15:25.323Z,8.70
2022-12-27T07:17:54.205Z,8.70
2022-12-27T07:20:23.179Z,8.70
2022-12-27T07:22:52.838Z,8.70
2022-12-27T07:25:21.599Z,8.80
2022-12-27T07:27:50.530Z,9.00
2022-12-27T07:30:20.742Z,9.20
2022-12-27T07:32:49.634Z,9.30
2022-12-27T07:35:18.607Z,9.30
2022-12-27T07:37:47.693Z,9.40
2022-12-27T07:40:16.568Z,9.50
2022-12-27T07:42:45.428Z,9.60
2022-12-27T07:45:14.255Z,9.60
2022-12-27T07:47:44.508Z,9.50
2022-12-27T07:50:13.294Z,9.50
2022-12-27T07:52:42.096Z,9.50
2022-12-27T07:55:11.230Z,9.50
2022-12-27T07:57:40.037Z,9.50
2022-12-27T08:00:10.923Z,9.60
2022-12-27T08:02:39.701Z,10.00
2022-12-27T08:05:11.358Z,10.30
2022-12-27T08:07:42.169Z,10.50
2022-12-27T08:10:12.476Z,10.60
2022-12-27T08:12:41.729Z,10.70
2022-12-27T08:15:13.150Z,11.00
2022-12-27T08:17:42.031Z,11.30
2022-12-27T08:20:15.833Z,11.60
2022-12-27T08:22:44.634Z,12.00
2022-12-27T08:25:13.616Z,12.40
2022-12-27T08:27:42.519Z,12.60
2022-12-27T08:30:13.004Z,12.60
2022-12-27T08:32:41.946Z,12.80
2022-12-27T08:35:50.410Z,12.90
2022-12-27T08:38:03.209Z,13.00
2022-12-27T08:40:35.144Z,13.30
2022-12-27T08:43:04.709Z,13.50
2022-12-27T08:45:33.599Z,13.70
2022-12-27T08:48:03.789Z,13.80
2022-12-27T08:50:34.551Z,13.80
2022-12-27T08:53:06.952Z,14.00
2022-12-27T08:55:36.546Z,14.20
2022-12-27T08:58:15.709Z,14.30
2022-12-27T09:00:45.479Z,14.20
2022-12-27T09:03:14.435Z,14.20
2022-12-27T09:05:45.003Z,14.30
2022-12-27T09:08:14.263Z,14.50
2022-12-27T09:10:43.204Z,14.70
2022-12-27T09:13:12.189Z,14.80
2022-12-27T09:15:41.597Z,15.10
2022-12-27T09:18:11.375Z,15.20
2022-12-27T09:20:40.304Z,15.20
2022-12-27T09:23:10.720Z,15.20
2022-12-27T09:25:54.049Z,15.30
2022-12-27T09:28:22.847Z,15.40
2022-12-27T09:30:51.742Z,15.50
2022-12-27T09:33:20.717Z,15.40
2022-12-27T09:35:49.832Z,15.40
2022-12-27T09:38:19.020Z,15.20
2022-12-27T09:40:56.914Z,15.00
2022-12-27T09:43:40.906Z,14.70
2022-12-27T09:46:17.979Z,14.50
2022-12-27T09:48:48.236Z,14.60
2022-12-27T09:51:22.705Z,14.80
2022-12-27T09:54:01.938Z,15.10
2022-12-27T09:57:09.502Z,15.10
2022-12-27T09:59:33.216Z,14.80
2022-12-27T10:02:02.428Z,14.90
2022-12-27T10:05:17.669Z,15.20
2022-12-27T10:07:41.853Z,15.40
2022-12-27T10:10:28.794Z,15.50
2022-12-27T10:13:17.390Z,15.50
2022-12-27T10:15:56.813Z,15.40
2022-12-27T10:18:44.038Z,15.50
2022-12-27T10:21:24.845Z,15.70
2022-12-27T10:23:57.833Z,15.70
2022-12-27T10:26:27.855Z,15.20
2022-12-27T10:29:04.836Z,14.70
2022-12-27T10:31:34.397Z,14.70
2022-12-27T10:34:08.948Z,14.50
2022-12-27T10:36:41.316Z,14.60
2022-12-27T10:39:21.317Z,14.80
2022-12-27T10:42:03.693Z,14.90
2022-12-27T10:44:34.339Z,14.90
2022-12-27T10:47:04.353Z,15.10
2022-12-27T10:49:35.570Z,15.30
2022-12-27T10:52:12.265Z,15.50
2022-12-27T10:54:53.161Z,15.60
2022-12-27T10:57:29.285Z,15.60
2022-12-27T11:00:27.840Z,15.70
2022-12-27T11:02:59.206Z,15.80
2022-12-27T11:05:30.422Z,15.10
2022-12-27T11:08:01.337Z,15.00
2022-12-27T11:10:32.485Z,14.90
2022-12-27T11:13:04.175Z,15.00
2022-12-27T11:15:37.852Z,15.00
2022-12-27T11:18:18.128Z,14.80
2022-12-27T11:20:51.813Z,14.70
2022-12-27T11:23:24.066Z,14.70
2022-12-27T11:25:58.121Z,14.90
2022-12-27T11:28:37.685Z,14.90
2022-12-27T11:31:12.578Z,14.80
2022-12-27T11:33:47.281Z,14.80
2022-12-27T11:36:26.691Z,14.80
2022-12-27T11:38:55.961Z,14.80
2022-12-27T11:41:38.420Z,14.80
2022-12-27T11:44:19.175Z,14.80
2022-12-27T11:46:59.349Z,14.80
2022-12-27T11:49:37.341Z,14.70
2022-12-27T11:52:51.865Z,14.20
2022-12-27T11:55:58.804Z,14.20
2022-12-27T11:59:24.392Z,14.20
2022-12-27T12:02:45.228Z,14.40
2022-12-27T12:05:58.268Z,14.60
2022-12-27T12:09:20.204Z,14.70
2022-12-27T12:12:18.647Z,14.40
2022-12-27T12:15:32.818Z,14.20
2022-12-27T12:18:25.559Z,14.20
2022-12-27T12:21:25.899Z,14.20
2022-12-27T12:24:42.098Z,14.10
2022-12-27T12:27:40.694Z,14.00
2022-12-27T12:30:59.030Z,13.90
2022-12-27T12:33:56.205Z,13.90
2022-12-27T12:36:53.098Z,13.90
2022-12-27T12:39:46.960Z,13.60
2022-12-27T12:42:30.018Z,13.20
2022-12-27T12:45:36.561Z,13.10
2022-12-27T12:48:45.826Z,13.00
2022-12-27T12:51:47.020Z,12.90
2022-12-27T12:55:02.732Z,12.90
2022-12-27T12:57:49.097Z,12.90
2022-12-27T13:00:38.757Z,12.80
2022-12-27T13:04:19.494Z,12.70
2022-12-27T13:07:14.287Z,12.60
2022-12-27T13:10:09.574Z,12.70
2022-12-27T13:12:52.414Z,12.60
2022-12-27T13:15:37.785Z,12.60
2022-12-27T13:18:28.387Z,12.40
2022-12-27T13:21:18.225Z,12.10
2022-12-27T13:24:07.562Z,11.80
2022-12-27T13:26:49.226Z,11.70
2022-12-27T13:30:06.266Z,11.60
2022-12-27T13:33:03.468Z,11.50
2022-12-27T13:35:51.995Z,11.40
2022-12-27T13:38:39.130Z,11.30
2022-12-27T13:41:38.943Z,11.10
2022-12-27T13:44:31.279Z,11.10
2022-12-27T13:47:39.082Z,11.10
2022-12-27T13:50:57.896Z,11.20
2022-12-27T13:54:19.794Z,11.20
2022-12-27T13:57:04.012Z,11.20
2022-12-27T14:00:17.590Z,11.20
2022-12-27T14:03:37.130Z,11.10
2022-12-27T14:06:57.188Z,11.00
2022-12-27T14:10:03.525Z,11.00
2022-12-27T14:13:03.988Z,10.90
2022-12-27T14:16:20.395Z,10.80
2022-12-27T14:19:19.945Z,10.60
2022-12-27T14:22:27.859Z,10.50
2022-12-27T14:25:47.742Z,10.40
2022-12-27T14:28:59.680Z,10.40
2022-12-27T14:32:25.791Z,10.40
2022-12-27T14:35:43.915Z,10.40
2022-12-27T14:38:51.382Z,10.50
2022-12-27T14:42:03.396Z,10.50
2022-12-27T14:45:37.015Z,10.40
2022-12-27T14:49:16.832Z,10.30
2022-12-27T14:52:50.893Z,10.30
2022-12-27T14:55:49.639Z,10.20
2022-12-27T14:58:57.844Z,10.10
2022-12-27T15:01:47.659Z,10.00
2022-12-27T15:04:47.537Z,10.00
2022-12-27T15:07:51.851Z,10.00
2022-12-27T15:10:45.619Z,9.90
2022-12-27T15:13:20.786Z,9.90
2022-12-27T15:16:11.611Z,9.80
2022-12-27T15:19:17.332Z,9.70
2022-12-27T15:22:03.125Z,9.60
2022-12-27T15:24:49.063Z,9.50
2022-12-27T15:27:28.938Z,9.50
2022-12-27T15:30:24.409Z,9.40
2022-12-27T15:33:06.286Z,9.50
2022-12-27T15:35:56.107Z,9.50
2022-12-27T15:38:45.240Z,9.50
2022-12-27T15:41:31.307Z,9.40
2022-12-27T15:44:37.508Z,9.40
2022-12-27T15:47:39.917Z,9.40
2022-12-27T15:50:34.317Z,9.30
2022-12-27T15:53:52.356Z,9.30
2022-12-27T16:01:18.992Z,9.10
2022-12-27T16:03:54.737Z,9.10
2022-12-27T16:06:53.529Z,9.10
2022-12-27T16:09:39.484Z,9.00
2022-12-27T16:12:13.392Z,9.00
2022-12-27T16:14:44.937Z,9.00
2022-12-27T16:17:40.947Z,9.00
2022-12-27T16:20:18.586Z,9.00
2022-12-27T16:22:57.960Z,9.00
2022-12-27T16:30:37.861Z,9.00
2022-12-27T16:33:07.423Z,9.00
2022-12-27T16:35:36.581Z,8.90
2022-12-27T16:38:23.599Z,8.90
2022-12-27T16:40:59.663Z,9.00
2022-12-27T16:44:10.918Z,8.90
2022-12-27T16:47:11.719Z,9.00
2022-12-27T16:50:40.503Z,9.00
2022-12-27T16:53:34.549Z,9.10
2022-12-27T16:56:22.929Z,9.10
2022-12-27T16:58:52.519Z,9.00
2022-12-27T17:02:01.602Z,8.90
2022-12-27T17:05:00.402Z,9.00
2022-12-27T17:08:22.485Z,8.80
2022-12-27T17:11:27.693Z,8.80
2022-12-27T17:14:03.257Z,8.90
2022-12-27T17:16:42.619Z,9.00
2022-12-27T17:19:22.014Z,9.00
2022-12-27T17:22:00.070Z,9.00
2022-12-27T17:24:31.404Z,8.90
2022-12-27T17:27:21.115Z,8.90
2022-12-27T17:30:19.160Z,8.90
2022-12-27T17:33:11.387Z,8.90
2022-12-27T17:36:02.041Z,8.90
2022-12-27T17:38:51.809Z,8.90
2022-12-27T17:41:58.538Z,8.90
2022-12-27T17:44:48.253Z,8.90
2022-12-27T17:47:38.357Z,8.80
2022-12-27T17:54:43.461Z,8.80
2022-12-27T17:57:34.628Z,8.60
2022-12-27T18:00:04.716Z,8.60
2022-12-27T18:02:39.151Z,8.70
2022-12-27T18:05:14.781Z,8.60
2022-12-27T18:07:45.827Z,8.50
2022-12-27T18:10:25.353Z,8.50
2022-12-27T18:12:58.595Z,8.50
2022-12-27T18:15:30.509Z,8.50
2022-12-27T18:18:02.798Z,8.40
2022-12-27T18:20:38.732Z,8.30
2022-12-27T18:24:27.999Z,8.20
2022-12-27T18:32:04.671Z,8.00
2022-12-27T18:34:42.462Z,8.10
2022-12-27T18:37:18.626Z,8.10
2022-12-27T18:39:53.617Z,8.00
2022-12-27T18:42:32.678Z,8.10
2022-12-27T18:45:05.434Z,8.00
2022-12-27T18:47:48.931Z,8.00
2022-12-27T18:50:21.057Z,8.00
2022-12-27T18:53:27.432Z,7.90
2022-12-27T18:59:02.511Z,7.90
2022-12-27T19:01:27.306Z,7.90
2022-12-27T19:04:22.896Z,7.90
2022-12-27T19:06:57.992Z,7.80
2022-12-27T19:09:31.445Z,7.80
2022-12-27T19:12:03.978Z,7.80
2022-12-27T19:14:43.193Z,7.90
2022-12-27T19:17:20.944Z,7.80
2022-12-27T19:19:56.161Z,7.90
2022-12-27T19:22:37.046Z,7.90
2022-12-27T19:25:19.614Z,8.10
2022-12-27T19:28:00.018Z,8.10
2022-12-27T19:30:43.777Z,8.20
2022-12-27T19:33:29.331Z,8.20
2022-12-27T19:36:02.049Z,8.20
2022-12-27T19:38:34.803Z,8.20
2022-12-27T19:41:06.350Z,8.20
2022-12-27T19:43:42.623Z,8.20
2022-12-27T19:46:13.293Z,8.10
2022-12-27T19:49:01.108Z,8.00
2022-12-27T19:51:39.394Z,8.00
2022-12-27T19:54:17.061Z,7.90
2022-12-27T19:56:46.467Z,7.80
2022-12-27T19:59:18.897Z,7.80
2022-12-27T20:01:48.597Z,7.70
2022-12-27T20:04:19.309Z,7.80
2022-12-27T20:06:50.940Z,7.70
2022-12-27T20:09:21.994Z,7.70
2022-12-27T20:11:51.493Z,7.60
2022-12-27T20:14:20.748Z,7.50
2022-12-27T20:16:54.151Z,7.40
2022-12-27T20:19:29.160Z,7.40
2022-12-27T20:22:01.636Z,7.30
2022-12-27T20:24:33.065Z,7.30
2022-12-27T20:27:02.571Z,7.20
2022-12-27T20:29:31.768Z,7.20
2022-12-27T20:32:01.635Z,7.20
2022-12-27T20:34:30.700Z,7.20
2022-12-27T20:37:01.158Z,7.20
2022-12-27T20:39:30.382Z,7.10
2022-12-27T20:42:09.546Z,7.00
2022-12-27T20:44:40.214Z,7.00
2022-12-27T20:47:24.230Z,6.90
2022-12-27T20:49:53.490Z,6.90
2022-12-27T20:52:28.944Z,7.00
2022-12-27T20:55:01.317Z,6.90
2022-12-27T20:57:33.058Z,7.00
2022-12-27T21:00:02.361Z,7.00
2022-12-27T21:02:37.146Z,7.00
2022-12-27T21:05:07.852Z,7.00
2022-12-27T21:07:40.701Z,7.00
2022-12-27T21:10:11.048Z,7.00
2022-12-27T21:12:40.892Z,6.90
2022-12-27T21:15:14.137Z,7.00
2022-12-27T21:17:50.732Z,6.90
2022-12-27T21:20:19.833Z,7.00
2022-12-27T21:22:51.356Z,6.90
2022-12-27T21:25:20.208Z,6.90
2022-12-27T21:27:49.212Z,6.80
2022-12-27T21:30:18.044Z,6.80
2022-12-27T21:32:47.202Z,6.80
2022-12-27T21:35:16.324Z,6.70
2022-12-27T21:37:45.284Z,6.70
2022-12-27T21:40:26.080Z,6.70
2022-12-27T21:42:55.735Z,6.70
2022-12-27T21:45:24.522Z,6.70
2022-12-27T21:47:53.503Z,6.70
2022-12-27T21:50:25.813Z,6.60
2022-12-27T21:52:54.793Z,6.70
2022-12-27T21:55:35.641Z,6.70
2022-12-27T21:58:25.559Z,6.60
2022-12-27T22:01:01.455Z,6.70
2022-12-27T22:03:43.503Z,6.60
2022-12-27T22:06:18.173Z,6.70
2022-12-27T22:09:16.002Z,6.70
2022-12-27T22:11:52.348Z,6.60
2022-12-27T22:14:25.366Z,6.60
2022-12-27T22:17:00.204Z,6.60
2022-12-27T22:19:29.246Z,6.60
2022-12-27T22:22:01.515Z,6.50
2022-12-27T22:24:30.534Z,6.40
2022-12-27T22:27:00.926Z,6.40
2022-12-27T22:29:35.340Z,6.40
2022-12-27T22:32:04.655Z,6.30
2022-12-27T22:34:33.558Z,6.20
2022-12-27T22:37:04.941Z,6.30
2022-12-27T22:40:31.311Z,6.20
2022-12-27T22:43:02.988Z,6.20
2022-12-27T22:45:31.994Z,6.10
2022-12-27T22:48:00.802Z,6.00
2022-12-27T22:50:29.629Z,6.00
2022-12-27T22:52:58.533Z,6.00
2022-12-27T22:55:27.464Z,5.90
2022-12-27T22:57:56.331Z,5.90
2022-12-27T23:00:26.776Z,5.90
2022-12-27T23:02:55.634Z,5.90
2022-12-27T23:05:24.521Z,5.90
2022-12-27T23:08:04.989Z,5.90
2022-12-27T23:10:36.655Z,5.90
2022-12-27T23:13:05.752Z,5.90
2022-12-27T23:15:36.094Z,5.90
2022-12-27T23:18:07.110Z,5.80
2022-12-27T23:20:36.359Z,5.70
2022-12-27T23:23:05.316Z,5.70
2022-12-27T23:25:36.957Z,5.60
2022-12-27T23:28:06.568Z,5.50
2022-12-27T23:30:36.970Z,5.40
2022-12-27T23:33:06.172Z,5.40
2022-12-27T23:35:35.493Z,5.40
2022-12-27T23:38:04.854Z,5.50
2022-12-27T23:40:33.789Z,5.50
2022-12-27T23:43:33.134Z,5.50
2022-12-27T23:45:53.272Z,5.40
2022-12-27T23:48:24.124Z,5.40
2022-12-27T23:50:53.099Z,5.50
2022-12-27T23:53:21.998Z,5.40
2022-12-27T23:55:59.543Z,5.40
2022-12-27T23:58:28.611Z,5.40
